Time;durP1;ratioP1;P1;durP2;ratioP2;P2;SDS_P1;SDS_P2;PMS_P1;PMS_P2;Temp;Humidity;BMP_temperature;BMP_pressure;BME280_temperature;BME280_humidity;BME280_pressure;Samples;Min_cycle;Max_cycle;Signal;HPM_P1;HPM_P2
2021/04/25 00:00:17;;;;;;;6.57;5.60;;;9.70;98.90;;;;;;5050076;28;20533;-67
2021/04/25 00:02:43;;;;;;;11.70;5.80;;;9.70;99.10;;;;;;5032400;28;20434;-67
2021/04/25 00:05:11;;;;;;;8.90;5.30;;;9.70;99.50;;;;;;5050536;28;20514;-67
2021/04/25 00:07:37;;;;;;;5.97;5.07;;;9.70;99.90;;;;;;5050288;28;20568;-67
2021/04/25 00:10:05;;;;;;;7.67;4.60;;;9.70;99.90;;;;;;5049820;28;20446;-67
2021/04/25 00:12:30;;;;;;;6.87;5.40;;;9.70;99.90;;;;;;5050324;28;20201;-67
2021/04/25 00:14:56;;;;;;;8.60;6.63;;;9.70;99.90;;;;;;5049904;28;20526;-66
2021/04/25 00:17:22;;;;;;;7.53;5.50;;;9.70;99.90;;;;;;5050351;28;20177;-66
2021/04/25 00:19:47;;;;;;;6.90;5.23;;;9.70;99.90;;;;;;5050086;28;20254;-67
2021/04/25 00:22:12;;;;;;;6.80;5.60;;;9.70;99.90;;;;;;5049902;28;20205;-67
2021/04/25 00:24:38;;;;;;;10.77;5.47;;;9.60;99.90;;;;;;5050152;28;20671;-67
2021/04/25 00:27:04;;;;;;;7.60;5.47;;;9.60;99.90;;;;;;5050256;28;20195;-67
2021/04/25 00:29:30;;;;;;;6.10;5.50;;;9.50;99.90;;;;;;5049844;28;20199;-67
2021/04/25 00:31:55;;;;;;;6.87;6.17;;;9.50;99.90;;;;;;5049704;28;20226;-67
2021/04/25 00:34:21;;;;;;;10.07;6.07;;;9.40;99.90;;;;;;5049867;28;20534;-66
2021/04/25 00:36:47;;;;;;;6.97;6.37;;;9.40;99.90;;;;;;5050360;28;20239;-67
2021/04/25 00:39:13;;;;;;;9.93;5.97;;;9.40;99.90;;;;;;5049361;28;20201;-67
2021/04/25 00:41:38;;;;;;;7.87;5.03;;;9.40;99.90;;;;;;5049814;28;20863;-67
2021/04/25 00:44:06;;;;;;;6.37;5.77;;;9.40;99.90;;;;;;5050234;28;20590;-66
2021/04/25 00:46:31;;;;;;;8.50;4.83;;;9.30;99.90;;;;;;5050151;28;20176;-67
2021/04/25 00:48:57;;;;;;;7.30;5.87;;;9.20;99.90;;;;;;5049800;28;20436;-67
2021/04/25 00:51:23;;;;;;;6.97;4.90;;;9.20;99.90;;;;;;5049688;28;20699;-67
2021/04/25 00:53:50;;;;;;;8.70;5.00;;;9.20;99.90;;;;;;5049588;28;20553;-67
2021/04/25 00:56:16;;;;;;;8.63;4.73;;;9.20;99.90;;;;;;5050028;28;20851;-67
2021/04/25 00:58:42;;;;;;;7.20;5.00;;;9.20;99.90;;;;;;5049816;28;20464;-66
2021/04/25 01:01:08;;;;;;;7.53;6.10;;;9.20;99.90;;;;;;5049223;28;20513;-67
2021/04/25 01:03:33;;;;;;;5.43;4.93;;;9.10;99.90;;;;;;5049830;28;20507;-67
2021/04/25 01:05:59;;;;;;;6.70;4.57;;;9.00;99.90;;;;;;5049790;28;20442;-66
2021/04/25 01:08:25;;;;;;;7.27;5.23;;;9.00;99.90;;;;;;5049849;28;20169;-66
2021/04/25 01:10:50;;;;;;;7.60;5.83;;;9.00;99.90;;;;;;5049485;28;20220;-67
2021/04/25 01:13:17;;;;;;;6.33;5.40;;;9.00;99.90;;;;;;5049545;28;20189;-67
2021/04/25 01:15:43;;;;;;;6.17;5.30;;;8.90;99.90;;;;;;5052436;28;20177;-67
2021/04/25 01:18:08;;;;;;;5.90;5.40;;;8.90;99.90;;;;;;5053465;28;20476;-67
2021/04/25 01:20:34;;;;;;;11.53;6.00;;;8.90;99.90;;;;;;5052939;28;20209;-67
2021/04/25 01:22:59;;;;;;;10.03;5.37;;;8.90;99.90;;;;;;5053136;28;20239;-66
2021/04/25 01:25:27;;;;;;;7.43;5.10;;;8.90;99.90;;;;;;5053397;28;20204;-67
2021/04/25 01:27:52;;;;;;;7.23;5.87;;;8.90;99.90;;;;;;5053207;28;20277;-67
2021/04/25 01:30:22;;;;;;;7.40;5.20;;;8.80;99.90;;;;;;5052674;28;20908;-67
2021/04/25 01:32:48;;;;;;;6.30;5.30;;;8.80;99.90;;;;;;5053656;28;20467;-66
2021/04/25 01:35:20;;;;;;;9.47;5.37;;;8.70;99.90;;;;;;5053341;28;20470;-67
2021/04/25 01:37:46;;;;;;;7.17;4.90;;;8.70;99.90;;;;;;5053102;28;20428;-67
2021/04/25 01:40:12;;;;;;;7.03;5.23;;;8.60;99.90;;;;;;5052043;28;20464;-67
2021/04/25 01:42:37;;;;;;;6.67;5.53;;;8.60;99.90;;;;;;5053278;28;20200;-66
2021/04/25 01:45:05;;;;;;;7.03;5.37;;;8.60;99.90;;;;;;5053025;28;20647;-66
2021/04/25 01:47:30;;;;;;;8.03;4.90;;;8.50;99.90;;;;;;5053093;28;20177;-66
2021/04/25 01:49:56;;;;;;;6.53;5.73;;;8.60;99.90;;;;;;5052465;28;20847;-67
2021/04/25 01:52:21;;;;;;;6.00;5.50;;;8.60;99.90;;;;;;5052823;28;20237;-67
2021/04/25 01:54:47;;;;;;;10.60;5.73;;;8.50;99.90;;;;;;5052922;28;20178;-67
2021/04/25 01:57:12;;;;;;;8.00;5.90;;;8.50;99.90;;;;;;5052722;28;20554;-67
2021/04/25 01:59:38;;;;;;;6.50;5.47;;;8.40;99.90;;;;;;5052461;28;20209;-67
2021/04/25 02:02:03;;;;;;;6.30;5.40;;;8.40;99.90;;;;;;5053106;28;20197;-67
2021/04/25 02:04:29;;;;;;;8.77;5.80;;;8.30;99.90;;;;;;5053077;28;20169;-67
2021/04/25 02:06:54;;;;;;;7.87;5.53;;;8.20;99.90;;;;;;5034191;28;20217;-67
2021/04/25 02:09:20;;;;;;;7.93;5.67;;;8.20;99.90;;;;;;5052270;28;20600;-67
2021/04/25 02:11:45;;;;;;;7.80;6.03;;;8.20;99.90;;;;;;5052958;28;20208;-67
2021/04/25 02:14:11;;;;;;;6.50;5.80;;;8.20;99.90;;;;;;5034670;28;20189;-67
2021/04/25 02:16:36;;;;;;;7.50;5.67;;;8.20;99.90;;;;;;5052749;28;20186;-66
2021/04/25 02:19:03;;;;;;;6.90;4.93;;;8.10;99.90;;;;;;5052275;28;20614;-67
2021/04/25 02:21:28;;;;;;;7.67;6.00;;;8.20;99.90;;;;;;5052205;28;20216;-67
2021/04/25 02:23:56;;;;;;;10.17;6.10;;;8.10;99.90;;;;;;5052111;28;20432;-67
2021/04/25 02:26:22;;;;;;;8.33;5.67;;;8.10;99.90;;;;;;5050724;28;20225;-67
2021/04/25 02:28:48;;;;;;;7.60;6.30;;;8.00;99.90;;;;;;5052163;28;20427;-67
2021/04/25 02:31:14;;;;;;;6.90;5.60;;;8.00;99.90;;;;;;5051687;28;20251;-66
2021/04/25 02:33:39;;;;;;;16.23;14.57;;;8.00;99.90;;;;;;5051978;28;20435;-66
2021/04/25 02:36:06;;;;;;;13.63;11.87;;;7.90;99.90;;;;;;5051991;28;20185;-66
2021/04/25 02:38:32;;;;;;;11.43;7.67;;;7.90;99.90;;;;;;5051623;28;20205;-66
2021/04/25 02:40:58;;;;;;;8.27;6.70;;;7.80;99.90;;;;;;5051447;28;20459;-67
2021/04/25 02:43:24;;;;;;;10.70;6.20;;;7.80;99.90;;;;;;5052377;28;20181;-67
2021/04/25 02:45:49;;;;;;;8.07;6.60;;;7.80;99.90;;;;;;5051927;28;20199;-67
2021/04/25 02:48:15;;;;;;;8.53;5.93;;;7.70;99.90;;;;;;5051585;28;20174;-67
2021/04/25 02:50:42;;;;;;;11.07;5.50;;;7.60;99.90;;;;;;5051397;28;20229;-67
2021/04/25 02:53:08;;;;;;;8.93;5.73;;;7.60;99.90;;;;;;5051619;28;20181;-67
2021/04/25 02:55:35;;;;;;;8.60;5.80;;;7.60;99.90;;;;;;5051695;28;20851;-68
2021/04/25 02:58:01;;;;;;;9.00;6.80;;;7.60;99.90;;;;;;5051464;28;20431;-67
2021/04/25 03:00:28;;;;;;;8.73;5.70;;;7.50;99.90;;;;;;5051267;28;20456;-67
2021/04/25 03:02:55;;;;;;;7.80;5.43;;;7.60;99.90;;;;;;5051408;28;20522;-67
2021/04/25 03:05:21;;;;;;;8.70;6.40;;;7.60;99.90;;;;;;5051198;28;20433;-67
2021/04/25 03:07:46;;;;;;;8.60;5.47;;;7.50;99.90;;;;;;5051406;28;20929;-67
2021/04/25 03:10:13;;;;;;;11.47;6.40;;;7.60;99.90;;;;;;5051035;28;20231;-66
2021/04/25 03:12:39;;;;;;;10.10;6.20;;;7.50;99.90;;;;;;5033251;28;20208;-66
2021/04/25 03:15:06;;;;;;;7.70;6.93;;;7.50;99.90;;;;;;5051392;28;20937;-67
2021/04/25 03:17:32;;;;;;;7.10;5.40;;;7.40;99.90;;;;;;5051127;28;20272;-67
2021/04/25 03:19:58;;;;;;;7.80;5.50;;;7.40;99.90;;;;;;5050845;28;20571;-67
2021/04/25 03:22:23;;;;;;;8.53;5.80;;;7.30;99.90;;;;;;5051088;28;20197;-66
2021/04/25 03:24:49;;;;;;;8.40;5.70;;;7.30;99.90;;;;;;5050961;28;20178;-66
2021/04/25 03:27:14;;;;;;;7.60;5.97;;;7.20;99.90;;;;;;5051009;28;20173;-67
2021/04/25 03:29:42;;;;;;;8.33;5.60;;;7.20;99.90;;;;;;5050851;28;20184;-67
2021/04/25 03:32:08;;;;;;;10.13;6.27;;;7.20;99.90;;;;;;5051269;28;20221;-66
2021/04/25 03:34:34;;;;;;;10.77;6.83;;;7.20;99.90;;;;;;5050887;28;20463;-67
2021/04/25 03:37:00;;;;;;;6.33;5.47;;;7.20;99.90;;;;;;5050486;28;20182;-67
2021/04/25 03:39:25;;;;;;;7.70;6.17;;;7.20;99.90;;;;;;5050472;28;20262;-67
2021/04/25 03:41:51;;;;;;;7.00;5.83;;;7.20;99.90;;;;;;5051164;28;20448;-67
2021/04/25 03:44:17;;;;;;;6.73;6.10;;;7.20;99.90;;;;;;5050967;28;20201;-66
2021/04/25 03:46:43;;;;;;;6.60;5.90;;;7.20;99.90;;;;;;5050740;28;20180;-66
2021/04/25 03:49:09;;;;;;;9.83;6.63;;;7.20;99.90;;;;;;5050655;28;20439;-67
2021/04/25 03:51:35;;;;;;;12.10;6.70;;;7.20;99.90;;;;;;5050169;28;20499;-66
2021/04/25 03:54:01;;;;;;;11.93;6.00;;;7.20;99.90;;;;;;5050679;28;20953;-66
2021/04/25 03:56:27;;;;;;;7.20;5.87;;;7.20;99.90;;;;;;5051076;28;20432;-66
2021/04/25 03:58:52;;;;;;;11.50;6.17;;;7.20;99.90;;;;;;5050340;28;20574;-67
2021/04/25 04:01:18;;;;;;;7.27;5.80;;;7.20;99.90;;;;;;5049823;28;20201;-67
2021/04/25 04:03:43;;;;;;;6.80;5.70;;;7.10;99.90;;;;;;5050538;28;20177;-67
2021/04/25 04:06:09;;;;;;;8.67;6.00;;;7.00;99.90;;;;;;5032356;28;20785;-67
2021/04/25 04:08:34;;;;;;;6.77;5.53;;;7.00;99.90;;;;;;5050190;28;20690;-67
2021/04/25 04:11:00;;;;;;;8.00;6.57;;;7.00;99.90;;;;;;5032046;28;20193;-67
2021/04/25 04:13:25;;;;;;;7.30;5.87;;;7.00;99.90;;;;;;5050288;28;20464;-66
2021/04/25 04:15:51;;;;;;;8.70;6.50;;;6.90;99.90;;;;;;5050826;28;20174;-67
2021/04/25 04:18:16;;;;;;;9.13;5.80;;;6.80;99.90;;;;;;5050501;28;20249;-67
2021/04/25 04:20:42;;;;;;;8.40;6.13;;;6.70;99.90;;;;;;5049990;28;20282;-67
2021/04/25 04:23:07;;;;;;;6.93;5.80;;;6.60;99.90;;;;;;5050402;28;20187;-67
2021/04/25 04:25:33;;;;;;;7.93;6.40;;;6.60;99.90;;;;;;5050168;28;20182;-67
2021/04/25 04:27:58;;;;;;;9.17;6.30;;;6.60;99.90;;;;;;5050648;28;20185;-67
2021/04/25 04:30:25;;;;;;;9.63;6.57;;;6.60;99.90;;;;;;5049642;28;20169;-67
2021/04/25 04:32:50;;;;;;;6.83;6.13;;;6.60;99.90;;;;;;5050228;28;20596;-67
2021/04/25 04:35:16;;;;;;;11.93;8.40;;;6.60;99.90;;;;;;5050255;28;20467;-67
2021/04/25 04:37:42;;;;;;;9.30;6.20;;;6.70;99.90;;;;;;5050417;28;20185;-67
2021/04/25 04:40:08;;;;;;;8.97;6.40;;;6.80;99.90;;;;;;5049303;28;20208;-67
2021/04/25 04:42:33;;;;;;;7.20;5.53;;;7.00;99.90;;;;;;5050319;28;20890;-67
2021/04/25 04:44:59;;;;;;;7.40;5.80;;;7.00;99.90;;;;;;5050298;28;20471;-67
2021/04/25 04:47:24;;;;;;;9.97;6.60;;;7.00;99.90;;;;;;5050008;28;20258;-67
2021/04/25 04:49:50;;;;;;;9.43;6.23;;;7.10;99.90;;;;;;5051147;28;20598;-67
2021/04/25 04:52:15;;;;;;;6.03;5.40;;;7.20;99.90;;;;;;5053730;28;20205;-67
2021/04/25 04:54:41;;;;;;;8.40;6.80;;;7.40;99.90;;;;;;5053858;28;20186;-67
2021/04/25 04:57:07;;;;;;;7.50;6.57;;;7.40;99.90;;;;;;5053682;28;20169;-67
2021/04/25 04:59:32;;;;;;;9.60;7.10;;;7.40;99.90;;;;;;5053085;28;20451;-67
2021/04/25 05:01:58;;;;;;;8.80;6.43;;;7.30;99.90;;;;;;5053752;28;20335;-67
2021/04/25 05:04:24;;;;;;;10.03;6.57;;;7.30;99.90;;;;;;5054168;28;20181;-67
2021/04/25 05:06:49;;;;;;;9.87;6.10;;;7.40;99.90;;;;;;5053521;28;20178;-67
2021/04/25 05:09:15;;;;;;;7.97;6.57;;;7.50;99.90;;;;;;5053108;28;20181;-67
2021/04/25 05:11:40;;;;;;;8.43;6.23;;;7.60;99.90;;;;;;5053663;28;20740;-67
2021/04/25 05:14:06;;;;;;;6.20;5.60;;;7.70;99.90;;;;;;5053786;28;20545;-67
2021/04/25 05:16:31;;;;;;;7.80;7.00;;;7.80;99.90;;;;;;5053628;28;20579;-67
2021/04/25 05:18:57;;;;;;;7.13;5.83;;;7.90;99.90;;;;;;5053246;28;20225;-67
2021/04/25 05:21:22;;;;;;;9.40;7.00;;;8.00;99.90;;;;;;5053296;28;20204;-67
2021/04/25 05:23:48;;;;;;;7.53;6.73;;;8.10;99.90;;;;;;5053617;28;20196;-67
2021/04/25 05:26:13;;;;;;;8.87;5.93;;;8.10;99.90;;;;;;5053362;28;20650;-67
2021/04/25 05:28:39;;;;;;;8.23;7.47;;;8.20;99.90;;;;;;5053529;28;20188;-67
2021/04/25 05:31:04;;;;;;;9.30;7.30;;;8.30;99.90;;;;;;5052863;28;20271;-67
2021/04/25 05:33:30;;;;;;;9.67;7.00;;;8.40;99.90;;;;;;5053357;28;20598;-67
2021/04/25 05:35:56;;;;;;;8.90;6.90;;;8.60;99.90;;;;;;5053143;28;20220;-67
2021/04/25 05:38:22;;;;;;;7.80;6.10;;;8.70;99.90;;;;;;5053037;28;20658;-67
2021/04/25 05:40:47;;;;;;;8.77;6.80;;;8.90;99.90;;;;;;5052466;28;20225;-67
2021/04/25 05:43:13;;;;;;;7.67;6.90;;;9.00;99.90;;;;;;5053335;28;20430;-67
2021/04/25 05:45:39;;;;;;;9.30;7.03;;;9.20;99.90;;;;;;5052999;28;20196;-67
2021/04/25 05:48:05;;;;;;;10.03;6.43;;;9.40;99.90;;;;;;5052942;28;20177;-67
2021/04/25 05:50:31;;;;;;;8.53;6.50;;;9.60;99.90;;;;;;5052518;28;20374;-67
2021/04/25 05:52:57;;;;;;;7.03;5.87;;;9.80;99.90;;;;;;5052860;28;21032;-67
2021/04/25 05:55:23;;;;;;;8.10;6.60;;;10.00;99.90;;;;;;5053130;28;20784;-67
2021/04/25 05:57:49;;;;;;;8.90;5.90;;;10.10;99.90;;;;;;5052750;28;20427;-67
2021/04/25 06:00:22;;;;;;;8.30;7.03;;;10.10;99.90;;;;;;5052002;28;20564;-67
2021/04/25 06:02:48;;;;;;;7.37;6.60;;;10.30;99.90;;;;;;5052588;28;20424;-67
2021/04/25 06:05:15;;;;;;;9.53;7.03;;;10.50;99.90;;;;;;5052958;28;20598;-67
2021/04/25 06:07:40;;;;;;;11.90;7.27;;;10.60;99.90;;;;;;5052489;28;20420;-67
2021/04/25 06:10:07;;;;;;;10.37;7.70;;;10.80;99.90;;;;;;5052248;28;20503;-67
2021/04/25 06:12:33;;;;;;;11.80;7.60;;;10.90;99.90;;;;;;5052375;28;20280;-67
2021/04/25 06:14:59;;;;;;;9.70;7.70;;;11.00;99.90;;;;;;5052444;28;20526;-67
2021/04/25 06:17:25;;;;;;;13.10;7.53;;;11.10;99.90;;;;;;5052386;28;20304;-67
2021/04/25 06:19:50;;;;;;;9.43;7.10;;;11.40;99.90;;;;;;5052175;28;20525;-67
2021/04/25 06:22:16;;;;;;;7.77;6.97;;;11.60;99.90;;;;;;5044109;28;20193;-67
2021/04/25 06:24:42;;;;;;;8.33;7.47;;;11.70;99.90;;;;;;5052421;28;20208;-67
2021/04/25 06:27:08;;;;;;;8.40;7.33;;;11.60;99.90;;;;;;5034076;28;20174;-67
2021/04/25 06:29:35;;;;;;;9.33;7.50;;;11.60;99.90;;;;;;5052249;28;20213;-67
2021/04/25 06:32:01;;;;;;;9.10;8.03;;;11.60;99.90;;;;;;5051887;28;20455;-67
2021/04/25 06:34:27;;;;;;;10.73;7.90;;;11.70;99.90;;;;;;5034271;28;20945;-67
2021/04/25 06:36:52;;;;;;;13.33;8.87;;;11.80;99.90;;;;;;5052070;28;20435;-67
2021/04/25 06:39:18;;;;;;;12.87;9.63;;;12.00;99.90;;;;;;5051747;28;20197;-67
2021/04/25 06:41:44;;;;;;;11.73;8.60;;;12.20;99.90;;;;;;5052286;28;20181;-67
2021/04/25 06:44:09;;;;;;;19.23;9.07;;;12.30;99.90;;;;;;5052300;28;20178;-67
2021/04/25 06:46:35;;;;;;;11.47;9.20;;;12.40;99.90;;;;;;5052483;28;20260;-67
2021/04/25 06:49:00;;;;;;;10.30;8.13;;;12.50;99.90;;;;;;5051789;28;20457;-67
2021/04/25 06:51:27;;;;;;;8.63;7.83;;;12.70;99.90;;;;;;5051463;28;20556;-67
2021/04/25 06:53:53;;;;;;;10.60;9.20;;;12.80;99.90;;;;;;5052010;28;20550;-67
2021/04/25 06:56:18;;;;;;;10.13;9.13;;;13.10;98.90;;;;;;5051738;28;20436;-67
2021/04/25 06:58:44;;;;;;;12.47;10.03;;;13.20;98.60;;;;;;5051882;28;20209;-67
2021/04/25 07:01:11;;;;;;;17.60;10.27;;;13.30;98.30;;;;;;5051220;28;20209;-67
2021/04/25 07:03:37;;;;;;;12.73;9.80;;;13.50;97.90;;;;;;5051760;28;20182;-67
2021/04/25 07:06:03;;;;;;;14.90;9.97;;;13.60;97.70;;;;;;5051389;28;20424;-67
2021/04/25 07:08:28;;;;;;;16.80;12.93;;;13.50;97.10;;;;;;5051297;28;20439;-67
2021/04/25 07:10:54;;;;;;;11.57;9.60;;;13.50;97.50;;;;;;5033107;28;20229;-67
2021/04/25 07:13:21;;;;;;;15.63;9.90;;;13.60;96.90;;;;;;5050886;28;20540;-67
2021/04/25 07:15:47;;;;;;;13.40;9.63;;;13.70;96.80;;;;;;5051394;28;20189;-67
2021/04/25 07:18:13;;;;;;;10.20;8.43;;;13.80;96.90;;;;;;5051106;28;20510;-67
2021/04/25 07:20:39;;;;;;;15.43;10.00;;;14.00;96.10;;;;;;5050688;28;20550;-67
2021/04/25 07:23:04;;;;;;;11.23;10.20;;;14.00;95.60;;;;;;5051239;28;20606;-67
2021/04/25 07:25:30;;;;;;;12.20;9.57;;;14.00;95.50;;;;;;5051076;28;20246;-67
2021/04/25 07:27:56;;;;;;;15.47;10.90;;;14.20;95.80;;;;;;5051173;28;20585;-67
2021/04/25 07:30:22;;;;;;;12.50;11.20;;;14.50;95.10;;;;;;5050665;28;20493;-67
2021/04/25 07:32:47;;;;;;;13.93;12.40;;;14.80;94.00;;;;;;5051208;28;20661;-67
2021/04/25 07:35:14;;;;;;;12.73;11.53;;;14.80;93.50;;;;;;5050979;28;20439;-67
2021/04/25 07:37:39;;;;;;;15.90;11.50;;;14.80;93.10;;;;;;5051063;28;20602;-67
2021/04/25 07:40:07;;;;;;;12.03;10.83;;;15.00;92.90;;;;;;5050303;28;20448;-67
2021/04/25 07:42:33;;;;;;;14.87;13.30;;;15.00;93.00;;;;;;5050419;28;20193;-67
2021/04/25 07:44:59;;;;;;;14.83;11.50;;;15.10;92.20;;;;;;5051082;28;20432;-67
2021/04/25 07:47:24;;;;;;;13.70;12.33;;;15.30;91.90;;;;;;5050969;28;20189;-67
2021/04/25 07:49:50;;;;;;;16.27;12.17;;;15.40;91.10;;;;;;5050675;28;20220;-67
2021/04/25 07:52:15;;;;;;;15.30;13.50;;;15.70;90.90;;;;;;5050480;28;20228;-67
2021/04/25 07:54:41;;;;;;;13.33;11.97;;;15.60;90.40;;;;;;5050489;28;20209;-67
2021/04/25 07:57:06;;;;;;;12.77;11.57;;;15.60;90.30;;;;;;5050502;28;20170;-67
2021/04/25 07:59:32;;;;;;;14.10;11.33;;;15.80;90.20;;;;;;5050549;28;20208;-67
2021/04/25 08:01:59;;;;;;;13.80;11.27;;;15.70;89.50;;;;;;5050286;28;20838;-67
2021/04/25 08:04:25;;;;;;;14.83;12.03;;;15.90;88.90;;;;;;5050647;28;20536;-67
2021/04/25 08:06:50;;;;;;;15.87;11.83;;;16.00;88.90;;;;;;5050334;28;20566;-67
2021/04/25 08:09:16;;;;;;;15.30;13.00;;;16.20;86.60;;;;;;5050209;28;20250;-67
2021/04/25 08:11:41;;;;;;;12.63;11.30;;;16.10;86.30;;;;;;5050242;28;20198;-67
2021/04/25 08:14:07;;;;;;;14.80;12.67;;;16.30;85.30;;;;;;5050265;28;20616;-67
2021/04/25 08:16:33;;;;;;;21.30;19.10;;;16.50;85.10;;;;;;5050532;28;20182;-67
2021/04/25 08:18:59;;;;;;;14.90;13.40;;;16.90;85.60;;;;;;5049666;28;20591;-67
2021/04/25 08:21:27;;;;;;;16.70;13.70;;;17.10;81.90;;;;;;5050308;28;20439;-67
2021/04/25 08:23:52;;;;;;;17.17;12.53;;;17.30;81.40;;;;;;5050126;28;20173;-67
2021/04/25 08:26:18;;;;;;;15.60;13.90;;;17.20;79.20;;;;;;5050292;28;20434;-67
2021/04/25 08:28:43;;;;;;;14.83;13.10;;;17.20;80.30;;;;;;5050413;28;20184;-67
2021/04/25 08:31:09;;;;;;;15.30;13.80;;;17.10;79.30;;;;;;5050021;28;20220;-67
2021/04/25 08:33:35;;;;;;;13.20;11.90;;;17.30;79.10;;;;;;5050127;28;20247;-67
2021/04/25 08:36:00;;;;;;;15.33;13.43;;;17.30;78.00;;;;;;5049915;28;20252;-67
2021/04/25 08:38:26;;;;;;;16.23;14.57;;;17.40;77.30;;;;;;5050108;28;20173;-67
2021/04/25 08:40:51;;;;;;;13.93;12.50;;;17.80;77.30;;;;;;5049557;28;20201;-67
2021/04/25 08:43:17;;;;;;;16.80;14.10;;;18.00;75.60;;;;;;5032237;28;20177;-67
2021/04/25 08:45:45;;;;;;;16.80;15.03;;;18.20;72.70;;;;;;5050054;28;20169;-67
2021/04/25 08:48:13;;;;;;;14.47;12.97;;;18.20;72.70;;;;;;5050354;28;20650;-67
2021/04/25 08:50:38;;;;;;;14.77;13.40;;;18.20;71.70;;;;;;5050279;28;20459;-67
2021/04/25 08:53:04;;;;;;;14.33;12.93;;;18.30;72.40;;;;;;5049886;28;20458;-67
2021/04/25 08:55:30;;;;;;;16.10;13.80;;;18.20;70.90;;;;;;5050278;28;20643;-67
2021/04/25 08:57:56;;;;;;;14.50;12.53;;;18.60;70.10;;;;;;5050118;28;20181;-67
2021/04/25 09:00:23;;;;;;;16.97;14.43;;;18.80;69.10;;;;;;5049574;28;20470;-67
2021/04/25 09:02:54;;;;;;;15.03;13.53;;;18.70;68.50;;;;;;5049690;28;20181;-67
2021/04/25 09:05:22;;;;;;;14.47;12.97;;;18.80;68.90;;;;;;5050283;28;20784;-67
2021/04/25 09:07:56;;;;;;;19.30;13.63;;;18.80;68.70;;;;;;5050003;28;20478;-67
2021/04/25 09:10:29;;;;;;;13.47;11.17;;;19.10;66.50;;;;;;5049529;28;20439;-67
2021/04/25 09:12:55;;;;;;;12.70;11.60;;;19.20;64.60;;;;;;5050056;28;20435;-67
2021/04/25 09:15:20;;;;;;;14.10;12.00;;;19.50;63.30;;;;;;5049537;28;20442;-67
2021/04/25 09:18:01;;;;;;;13.00;11.73;;;19.70;63.70;;;;;;5049918;28;20183;-67
2021/04/25 09:20:45;;;;;;;13.90;12.70;;;20.20;60.80;;;;;;5049945;28;20213;-67
2021/04/25 09:23:31;;;;;;;12.83;11.70;;;20.60;59.60;;;;;;5049816;28;20428;-67
2021/04/25 09:26:05;;;;;;;14.17;12.70;;;20.80;58.50;;;;;;5040346;28;20474;-67
2021/04/25 09:28:31;;;;;;;14.73;11.63;;;20.70;56.80;;;;;;5049529;28;20959;-67
2021/04/25 09:31:08;;;;;;;15.93;11.80;;;21.40;57.10;;;;;;5049206;28;20452;-67
2021/04/25 09:33:51;;;;;;;16.50;11.47;;;21.80;55.40;;;;;;5049048;28;20576;-67
2021/04/25 09:36:18;;;;;;;12.33;11.13;;;22.10;53.40;;;;;;5051562;28;20447;-67
2021/04/25 09:38:44;;;;;;;13.87;11.43;;;22.30;51.90;;;;;;5052854;28;20431;-67
2021/04/25 09:41:30;;;;;;;14.13;12.80;;;22.80;51.80;;;;;;5052766;28;20454;-67
2021/04/25 09:43:56;;;;;;;14.13;12.60;;;22.90;51.00;;;;;;5053010;28;20265;-67
2021/04/25 09:46:22;;;;;;;12.70;11.33;;;23.20;50.50;;;;;;5053044;28;20515;-67
2021/04/25 09:48:48;;;;;;;12.40;11.20;;;23.20;49.60;;;;;;5053057;28;20193;-68
2021/04/25 09:51:14;;;;;;;12.90;11.20;;;23.90;48.30;;;;;;5052681;28;20245;-67
2021/04/25 09:54:01;;;;;;;13.47;12.20;;;24.40;47.40;;;;;;5052303;28;20573;-68
2021/04/25 09:56:41;;;;;;;11.80;10.70;;;24.20;46.80;;;;;;5053140;28;20434;-67
2021/04/25 09:59:08;;;;;;;11.43;10.40;;;23.40;46.80;;;;;;5052670;28;20833;-67
2021/04/25 10:01:38;;;;;;;11.77;10.57;;;23.20;47.10;;;;;;5052520;28;20520;-67
2021/04/25 10:04:25;;;;;;;11.07;10.00;;;23.90;46.90;;;;;;5052637;28;20431;-67
2021/04/25 10:06:55;;;;;;;10.03;9.03;;;24.70;44.50;;;;;;5052544;28;20435;-67
2021/04/25 10:09:21;;;;;;;11.70;10.37;;;24.60;43.70;;;;;;5052488;28;20423;-67
2021/04/25 10:11:48;;;;;;;11.53;10.43;;;25.20;43.60;;;;;;5052357;28;20602;-67
2021/04/25 10:14:14;;;;;;;11.87;10.67;;;24.80;42.90;;;;;;5052907;28;20202;-67
2021/04/25 10:16:42;;;;;;;13.30;10.30;;;24.70;43.80;;;;;;5052956;28;20948;-67
2021/04/25 10:19:12;;;;;;;11.47;10.37;;;25.00;42.90;;;;;;5052188;28;20586;-67
2021/04/25 10:21:39;;;;;;;11.10;10.00;;;24.90;42.70;;;;;;5052387;28;21020;-67
2021/04/25 10:24:07;;;;;;;14.33;10.70;;;24.70;42.50;;;;;;5052360;28;20428;-67
2021/04/25 10:26:40;;;;;;;13.83;10.10;;;24.80;42.10;;;;;;5052857;28;20424;-67
2021/04/25 10:29:10;;;;;;;10.00;9.00;;;24.80;42.00;;;;;;5043535;28;20476;-68
2021/04/25 10:31:37;;;;;;;10.27;9.37;;;25.10;42.30;;;;;;5040572;28;20451;-67
2021/04/25 10:34:16;;;;;;;9.83;8.93;;;25.40;41.70;;;;;;5052249;28;20432;-67
2021/04/25 10:36:44;;;;;;;10.60;9.53;;;25.10;41.30;;;;;;5052647;28;20427;-67
2021/04/25 10:39:47;;;;;;;10.60;9.20;;;25.40;40.80;;;;;;5044072;28;20459;-67
2021/04/25 10:42:25;;;;;;;9.90;9.00;;;26.90;53.00;;;;;;5001130;28;20528;-67
2021/04/25 10:44:57;;;;;;;10.50;9.40;;;28.30;43.90;;;;;;5051621;28;20420;-68
2021/04/25 10:47:27;;;;;;;11.03;10.03;;;28.90;36.20;;;;;;5051005;28;20470;-68
2021/04/25 10:49:54;;;;;;;10.10;9.30;;;28.40;35.90;;;;;;5051582;28;20432;-67
2021/04/25 10:52:25;;;;;;;10.90;9.80;;;27.40;36.70;;;;;;5051773;28;20455;-67
2021/04/25 10:55:09;;;;;;;9.90;8.90;;;27.30;37.20;;;;;;5051831;28;20770;-68
2021/04/25 10:58:07;;;;;;;10.00;9.10;;;27.00;37.70;;;;;;5051779;28;20436;-68
2021/04/25 11:03:00;;;;;;;9.70;8.77;;;27.30;36.10;;;;;;5051667;28;20428;-67
2021/04/25 11:05:35;;;;;;;10.37;9.57;;;27.10;36.60;;;;;;5052005;28;20170;-67
2021/04/25 11:08:01;;;;;;;10.43;9.30;;;27.10;37.20;;;;;;5051312;28;20463;-68
2021/04/25 11:10:55;;;;;;;11.03;10.03;;;28.30;36.00;;;;;;5051214;28;20474;-67
2021/04/25 11:13:51;;;;;;;10.70;9.50;;;28.50;34.90;;;;;;5051558;28;20191;-67
2021/04/25 11:16:16;;;;;;;10.03;9.23;;;30.30;34.00;;;;;;5044685;28;20467;-68
2021/04/25 11:18:52;;;;;;;9.73;8.83;;;29.10;33.40;;;;;;5051021;28;20466;-67
2021/04/25 11:21:27;;;;;;;10.30;9.10;;;29.10;34.40;;;;;;5044532;28;20201;-67
2021/04/25 11:23:56;;;;;;;9.23;8.30;;;29.50;33.70;;;;;;5051377;28;20424;-67
2021/04/25 11:26:37;;;;;;;9.33;8.37;;;29.70;33.10;;;;;;5051377;28;20438;-67
2021/04/25 11:29:19;;;;;;;9.27;8.37;;;30.70;32.80;;;;;;5050299;28;20420;-67
2021/04/25 11:31:55;;;;;;;9.13;8.33;;;29.40;32.30;;;;;;5051181;28;20448;-68
2021/04/25 11:34:32;;;;;;;8.37;7.67;;;28.40;32.80;;;;;;5051139;28;20799;-67
2021/04/25 11:37:16;;;;;;;7.50;6.80;;;28.80;33.30;;;;;;5051051;28;20427;-67
2021/04/25 11:39:56;;;;;;;8.00;6.07;;;30.30;31.90;;;;;;5032877;28;21026;-67
2021/04/25 11:42:32;;;;;;;7.50;6.90;;;31.40;30.80;;;;;;5048771;28;20439;-65
2021/04/25 11:45:00;;;;;;;6.77;6.17;;;32.30;29.90;;;;;;5051005;28;20990;-65
2021/04/25 11:47:30;;;;;;;10.70;9.80;;;30.90;30.40;;;;;;5050904;28;20925;-68
2021/04/25 11:49:57;;;;;;;8.87;7.80;;;31.50;29.80;;;;;;5050354;28;20990;-67
2021/04/25 11:52:28;;;;;;;7.20;6.60;;;31.90;29.40;;;;;;5050546;28;20456;-65
2021/04/25 11:55:06;;;;;;;7.80;7.10;;;32.20;28.80;;;;;;5050908;28;21193;-67
2021/04/25 11:57:34;;;;;;;9.93;8.97;;;32.30;29.00;;;;;;5032891;28;20436;-67
2021/04/25 12:00:06;;;;;;;7.37;6.80;;;32.30;28.80;;;;;;5049842;28;20455;-67
2021/04/25 12:02:35;;;;;;;8.37;7.57;;;32.80;28.00;;;;;;5050306;28;20485;-64
2021/04/25 12:05:07;;;;;;;5.93;5.40;;;33.00;28.10;;;;;;5051033;28;20420;-67
2021/04/25 12:07:38;;;;;;;5.87;5.37;;;33.80;27.40;;;;;;5050141;28;20825;-66
2021/04/25 12:10:10;;;;;;;6.93;6.30;;;34.60;26.00;;;;;;5050700;28;20424;-68
2021/04/25 12:12:36;;;;;;;5.83;5.33;;;34.40;26.10;;;;;;5050196;28;20452;-67
2021/04/25 12:15:09;;;;;;;6.97;6.37;;;34.20;26.60;;;;;;5050214;28;20577;-67
2021/04/25 12:17:35;;;;;;;7.47;6.77;;;34.10;26.60;;;;;;5050451;28;20793;-66
2021/04/25 12:20:03;;;;;;;7.07;6.53;;;33.70;26.30;;;;;;5050093;28;20460;-67
2021/04/25 12:22:29;;;;;;;6.77;6.17;;;31.50;27.00;;;;;;5050205;28;20318;-66
2021/04/25 12:24:59;;;;;;;6.33;5.73;;;30.70;27.80;;;;;;5050342;28;20440;-67
2021/04/25 12:27:25;;;;;;;5.63;5.13;;;30.90;27.40;;;;;;5050403;28;20431;-67
2021/04/25 12:29:51;;;;;;;6.17;5.67;;;30.60;27.80;;;;;;5049712;28;20444;-67
2021/04/25 12:32:21;;;;;;;6.00;5.40;;;31.90;26.40;;;;;;5049893;28;20510;-68
2021/04/25 12:34:58;;;;;;;5.20;4.60;;;33.00;26.20;;;;;;5049954;28;20436;-68
2021/04/25 12:37:36;;;;;;;5.63;5.10;;;34.20;25.70;;;;;;5050314;28;20467;-68
2021/04/25 12:40:04;;;;;;;6.30;5.70;;;34.30;25.20;;;;;;5049833;28;20799;-67
2021/04/25 12:42:29;;;;;;;7.70;5.67;;;33.00;25.60;;;;;;5050292;28;20452;-66
2021/04/25 12:44:55;;;;;;;6.30;5.80;;;31.20;26.00;;;;;;5050243;28;20514;-67
2021/04/25 12:47:28;;;;;;;5.70;5.20;;;31.70;26.40;;;;;;5050155;28;20295;-67
2021/04/25 12:49:54;;;;;;;6.10;5.50;;;30.20;26.60;;;;;;5049633;28;20177;-67